sensor_id;sensor_type;location;lat;lon;timestamp;temperature;humidity
75442;DHT22;64019;48.312;14.226;2023-02-15T00:01:46;0.50;99.90
75442;DHT22;64019;48.312;14.226;2023-02-15T00:04:17;0.40;99.90
75442;DHT22;64019;48.312;14.226;2023-02-15T00:06:43;0.60;99.90
75442;DHT22;64019;48.312;14.226;2023-02-15T00:09:10;0.60;99.90
75442;DHT22;64019;48.312;14.226;2023-02-15T00:11:36;0.50;99.90
75442;DHT22;64019;48.312;14.226;2023-02-15T00:14:14;0.60;99.90
75442;DHT22;64019;48.312;14.226;2023-02-15T00:16:41;0.60;99.90
75442;DHT22;64019;48.312;14.226;2023-02-15T00:19:08;0.70;99.90
75442;DHT22;64019;48.312;14.226;2023-02-15T00:21:35;0.70;99.90
75442;DHT22;64019;48.312;14.226;2023-02-15T00:24:03;0.70;99.90
75442;DHT22;64019;48.312;14.226;2023-02-15T00:26:29;0.70;99.90
75442;DHT22;64019;48.312;14.226;2023-02-15T00:28:56;0.60;99.90
75442;DHT22;64019;48.312;14.226;2023-02-15T00:31:24;0.70;99.90
75442;DHT22;64019;48.312;14.226;2023-02-15T00:33:50;0.70;99.90
75442;DHT22;64019;48.312;14.226;2023-02-15T00:36:16;0.80;99.90
75442;DHT22;64019;48.312;14.226;2023-02-15T00:38:41;0.80;99.90
75442;DHT22;64019;48.312;14.226;2023-02-15T00:41:08;0.90;99.90
75442;DHT22;64019;48.312;14.226;2023-02-15T00:43:34;0.90;99.90
75442;DHT22;64019;48.312;14.226;2023-02-15T00:46:01;0.90;99.90
75442;DHT22;64019;48.312;14.226;2023-02-15T00:48:27;0.90;99.90
75442;DHT22;64019;48.312;14.226;2023-02-15T00:50:54;0.90;99.90
75442;DHT22;64019;48.312;14.226;2023-02-15T00:53:21;0.90;99.90
75442;DHT22;64019;48.312;14.226;2023-02-15T00:55:47;0.90;99.90
75442;DHT22;64019;48.312;14.226;2023-02-15T00:58:13;0.90;99.90
75442;DHT22;64019;48.312;14.226;2023-02-15T01:00:40;0.70;99.90
75442;DHT22;64019;48.312;14.226;2023-02-15T01:03:08;0.80;99.90
75442;DHT22;64019;48.312;14.226;2023-02-15T01:05:33;0.90;99.90
75442;DHT22;64019;48.312;14.226;2023-02-15T01:07:59;1.00;99.90
75442;DHT22;64019;48.312;14.226;2023-02-15T01:10:26;1.00;99.90
75442;DHT22;64019;48.312;14.226;2023-02-15T01:12:53;1.00;99.90
75442;DHT22;64019;48.312;14.226;2023-02-15T01:15:19;1.10;99.90
75442;DHT22;64019;48.312;14.226;2023-02-15T01:17:45;1.00;99.90
75442;DHT22;64019;48.312;14.226;2023-02-15T01:20:17;1.10;99.90
75442;DHT22;64019;48.312;14.226;2023-02-15T01:22:43;1.10;99.90
75442;DHT22;64019;48.312;14.226;2023-02-15T01:25:09;1.10;99.90
75442;DHT22;64019;48.312;14.226;2023-02-15T01:27:34;1.10;99.90
75442;DHT22;64019;48.312;14.226;2023-02-15T01:30:00;1.10;99.90
75442;DHT22;64019;48.312;14.226;2023-02-15T01:32:26;1.10;99.90
75442;DHT22;64019;48.312;14.226;2023-02-15T01:34:52;1.20;99.90
75442;DHT22;64019;48.312;14.226;2023-02-15T01:37:18;1.20;99.90
75442;DHT22;64019;48.312;14.226;2023-02-15T01:39:43;1.20;99.90
75442;DHT22;64019;48.312;14.226;2023-02-15T01:42:11;1.20;99.90
75442;DHT22;64019;48.312;14.226;2023-02-15T01:44:52;1.30;99.90
75442;DHT22;64019;48.312;14.226;2023-02-15T01:52:29;1.30;99.90
75442;DHT22;64019;48.312;14.226;2023-02-15T01:54:55;1.30;99.90
75442;DHT22;64019;48.312;14.226;2023-02-15T01:57:23;1.30;99.90
75442;DHT22;64019;48.312;14.226;2023-02-15T01:59:55;1.30;99.90
75442;DHT22;64019;48.312;14.226;2023-02-15T02:02:22;1.40;99.90
75442;DHT22;64019;48.312;14.226;2023-02-15T02:04:52;1.40;99.90
75442;DHT22;64019;48.312;14.226;2023-02-15T02:07:20;1.40;99.90
75442;DHT22;64019;48.312;14.226;2023-02-15T02:09:48;1.30;99.90
75442;DHT22;64019;48.312;14.226;2023-02-15T02:12:15;1.40;99.90
75442;DHT22;64019;48.312;14.226;2023-02-15T02:14:42;1.40;99.90
75442;DHT22;64019;48.312;14.226;2023-02-15T02:20:15;1.50;99.90
75442;DHT22;64019;48.312;14.226;2023-02-15T02:26:01;1.50;99.90
75442;DHT22;64019;48.312;14.226;2023-02-15T02:34:32;1.40;99.90
75442;DHT22;64019;48.312;14.226;2023-02-15T02:37:19;1.50;99.90
75442;DHT22;64019;48.312;14.226;2023-02-15T02:40:11;1.50;99.90
75442;DHT22;64019;48.312;14.226;2023-02-15T02:42:44;1.50;99.90
75442;DHT22;64019;48.312;14.226;2023-02-15T02:45:28;1.60;99.90
75442;DHT22;64019;48.312;14.226;2023-02-15T02:48:09;1.60;99.90
75442;DHT22;64019;48.312;14.226;2023-02-15T02:50:39;1.60;99.90
75442;DHT22;64019;48.312;14.226;2023-02-15T02:53:04;1.50;99.90
75442;DHT22;64019;48.312;14.226;2023-02-15T02:58:27;1.30;99.90
75442;DHT22;64019;48.312;14.226;2023-02-15T03:00:55;1.20;99.90
75442;DHT22;64019;48.312;14.226;2023-02-15T03:03:26;1.20;99.90
75442;DHT22;64019;48.312;14.226;2023-02-15T03:05:55;1.20;99.90
75442;DHT22;64019;48.312;14.226;2023-02-15T03:08:26;1.20;99.90
75442;DHT22;64019;48.312;14.226;2023-02-15T03:10:55;1.30;99.90
75442;DHT22;64019;48.312;14.226;2023-02-15T03:13:23;1.30;99.90
75442;DHT22;64019;48.312;14.226;2023-02-15T03:15:50;1.40;99.90
75442;DHT22;64019;48.312;14.226;2023-02-15T03:18:43;1.40;99.90
75442;DHT22;64019;48.312;14.226;2023-02-15T03:21:11;1.40;99.90
75442;DHT22;64019;48.312;14.226;2023-02-15T03:23:52;1.40;99.90
75442;DHT22;64019;48.312;14.226;2023-02-15T03:26:21;1.30;99.90
75442;DHT22;64019;48.312;14.226;2023-02-15T03:28:49;1.30;99.90
75442;DHT22;64019;48.312;14.226;2023-02-15T03:31:19;1.30;99.90
75442;DHT22;64019;48.312;14.226;2023-02-15T03:33:55;1.30;99.90
75442;DHT22;64019;48.312;14.226;2023-02-15T03:36:32;1.30;99.90
75442;DHT22;64019;48.312;14.226;2023-02-15T03:39:12;1.30;99.90
75442;DHT22;64019;48.312;14.226;2023-02-15T03:41:50;1.30;99.90
75442;DHT22;64019;48.312;14.226;2023-02-15T03:44:25;1.30;99.90
75442;DHT22;64019;48.312;14.226;2023-02-15T03:47:15;1.40;99.90
75442;DHT22;64019;48.312;14.226;2023-02-15T03:49:50;1.40;99.90
75442;DHT22;64019;48.312;14.226;2023-02-15T03:52:17;1.50;99.90
75442;DHT22;64019;48.312;14.226;2023-02-15T03:54:44;1.50;99.90
75442;DHT22;64019;48.312;14.226;2023-02-15T03:57:22;1.30;99.90
75442;DHT22;64019;48.312;14.226;2023-02-15T04:00:19;1.30;99.90
75442;DHT22;64019;48.312;14.226;2023-02-15T04:03:12;1.20;99.90
75442;DHT22;64019;48.312;14.226;2023-02-15T04:05:39;1.20;99.90
75442;DHT22;64019;48.312;14.226;2023-02-15T04:08:04;1.30;99.90
75442;DHT22;64019;48.312;14.226;2023-02-15T04:10:30;1.20;99.90
75442;DHT22;64019;48.312;14.226;2023-02-15T04:13:15;1.30;99.90
75442;DHT22;64019;48.312;14.226;2023-02-15T04:15:40;1.30;99.90
75442;DHT22;64019;48.312;14.226;2023-02-15T04:18:24;1.40;99.90
75442;DHT22;64019;48.312;14.226;2023-02-15T04:21:08;1.50;99.90
75442;DHT22;64019;48.312;14.226;2023-02-15T04:23:52;1.40;99.90
75442;DHT22;64019;48.312;14.226;2023-02-15T04:26:36;1.30;99.90
75442;DHT22;64019;48.312;14.226;2023-02-15T04:29:02;1.30;99.90
75442;DHT22;64019;48.312;14.226;2023-02-15T04:31:28;1.40;99.90
75442;DHT22;64019;48.312;14.226;2023-02-15T04:33:53;1.30;99.90
75442;DHT22;64019;48.312;14.226;2023-02-15T04:36:19;1.40;99.90
75442;DHT22;64019;48.312;14.226;2023-02-15T04:38:45;1.30;99.90
75442;DHT22;64019;48.312;14.226;2023-02-15T04:41:10;1.30;99.90
75442;DHT22;64019;48.312;14.226;2023-02-15T04:43:38;1.30;99.90
75442;DHT22;64019;48.312;14.226;2023-02-15T04:46:04;1.30;99.90
75442;DHT22;64019;48.312;14.226;2023-02-15T04:48:30;1.30;99.90
75442;DHT22;64019;48.312;14.226;2023-02-15T04:50:56;1.40;99.90
75442;DHT22;64019;48.312;14.226;2023-02-15T04:53:21;1.30;99.90
75442;DHT22;64019;48.312;14.226;2023-02-15T04:55:47;1.40;99.90
75442;DHT22;64019;48.312;14.226;2023-02-15T04:58:13;1.40;99.90
75442;DHT22;64019;48.312;14.226;2023-02-15T05:00:38;1.40;99.90
75442;DHT22;64019;48.312;14.226;2023-02-15T05:03:04;1.40;99.90
75442;DHT22;64019;48.312;14.226;2023-02-15T05:05:29;1.40;99.90
75442;DHT22;64019;48.312;14.226;2023-02-15T05:07:55;1.40;99.90
75442;DHT22;64019;48.312;14.226;2023-02-15T05:10:21;1.40;99.90
75442;DHT22;64019;48.312;14.226;2023-02-15T05:12:47;1.40;99.90
75442;DHT22;64019;48.312;14.226;2023-02-15T05:15:12;1.40;99.90
75442;DHT22;64019;48.312;14.226;2023-02-15T05:17:38;1.40;99.90
75442;DHT22;64019;48.312;14.226;2023-02-15T05:20:06;1.40;99.90
75442;DHT22;64019;48.312;14.226;2023-02-15T05:22:32;1.50;99.90
75442;DHT22;64019;48.312;14.226;2023-02-15T05:24:57;1.50;99.90
75442;DHT22;64019;48.312;14.226;2023-02-15T05:27:41;1.50;99.90
75442;DHT22;64019;48.312;14.226;2023-02-15T05:30:26;1.50;99.90
75442;DHT22;64019;48.312;14.226;2023-02-15T05:32:51;1.50;99.90
75442;DHT22;64019;48.312;14.226;2023-02-15T05:35:18;1.50;99.90
75442;DHT22;64019;48.312;14.226;2023-02-15T05:37:43;1.50;99.90
75442;DHT22;64019;48.312;14.226;2023-02-15T05:40:09;1.60;99.90
75442;DHT22;64019;48.312;14.226;2023-02-15T05:42:35;1.50;99.90
75442;DHT22;64019;48.312;14.226;2023-02-15T05:45:01;1.60;99.90
75442;DHT22;64019;48.312;14.226;2023-02-15T05:47:26;1.50;99.90
75442;DHT22;64019;48.312;14.226;2023-02-15T05:49:52;1.50;99.90
75442;DHT22;64019;48.312;14.226;2023-02-15T05:52:17;1.60;99.90
75442;DHT22;64019;48.312;14.226;2023-02-15T05:54:43;1.60;99.90
75442;DHT22;64019;48.312;14.226;2023-02-15T05:57:09;1.60;99.90
75442;DHT22;64019;48.312;14.226;2023-02-15T05:59:34;1.60;99.90
75442;DHT22;64019;48.312;14.226;2023-02-15T06:02:00;1.70;99.90
75442;DHT22;64019;48.312;14.226;2023-02-15T06:04:26;1.70;99.90
75442;DHT22;64019;48.312;14.226;2023-02-15T06:06:51;1.70;99.90
75442;DHT22;64019;48.312;14.226;2023-02-15T06:09:17;1.80;99.90
75442;DHT22;64019;48.312;14.226;2023-02-15T06:11:44;1.80;99.90
75442;DHT22;64019;48.312;14.226;2023-02-15T06:14:10;1.70;99.90
75442;DHT22;64019;48.312;14.226;2023-02-15T06:16:36;1.80;99.90
75442;DHT22;64019;48.312;14.226;2023-02-15T06:19:02;1.80;99.90
75442;DHT22;64019;48.312;14.226;2023-02-15T06:21:29;1.70;99.90
75442;DHT22;64019;48.312;14.226;2023-02-15T06:23:55;1.80;99.90
75442;DHT22;64019;48.312;14.226;2023-02-15T06:26:21;1.70;99.90
75442;DHT22;64019;48.312;14.226;2023-02-15T06:28:46;1.70;99.90
75442;DHT22;64019;48.312;14.226;2023-02-15T06:31:12;1.70;99.90
75442;DHT22;64019;48.312;14.226;2023-02-15T06:33:37;1.70;99.90
75442;DHT22;64019;48.312;14.226;2023-02-15T06:36:04;1.60;99.90
75442;DHT22;64019;48.312;14.226;2023-02-15T06:38:30;1.60;99.90
75442;DHT22;64019;48.312;14.226;2023-02-15T06:40:56;1.70;99.90
75442;DHT22;64019;48.312;14.226;2023-02-15T06:43:21;1.70;99.90
75442;DHT22;64019;48.312;14.226;2023-02-15T06:45:47;1.70;99.90
75442;DHT22;64019;48.312;14.226;2023-02-15T06:48:13;1.70;99.90
75442;DHT22;64019;48.312;14.226;2023-02-15T06:50:38;1.70;99.90
75442;DHT22;64019;48.312;14.226;2023-02-15T06:53:04;1.80;99.90
75442;DHT22;64019;48.312;14.226;2023-02-15T06:55:30;1.80;99.90
75442;DHT22;64019;48.312;14.226;2023-02-15T06:57:55;1.90;99.90
75442;DHT22;64019;48.312;14.226;2023-02-15T07:00:21;1.90;99.90
75442;DHT22;64019;48.312;14.226;2023-02-15T07:02:54;1.80;99.90
75442;DHT22;64019;48.312;14.226;2023-02-15T07:05:26;1.80;99.90
75442;DHT22;64019;48.312;14.226;2023-02-15T07:07:57;1.80;99.90
75442;DHT22;64019;48.312;14.226;2023-02-15T07:10:23;1.90;99.90
75442;DHT22;64019;48.312;14.226;2023-02-15T07:12:48;1.90;99.90
75442;DHT22;64019;48.312;14.226;2023-02-15T07:15:16;1.90;99.90
75442;DHT22;64019;48.312;14.226;2023-02-15T07:17:42;2.00;99.90
75442;DHT22;64019;48.312;14.226;2023-02-15T07:20:20;2.00;99.90
75442;DHT22;64019;48.312;14.226;2023-02-15T07:22:47;2.00;99.90
75442;DHT22;64019;48.312;14.226;2023-02-15T07:25:13;2.00;99.90
75442;DHT22;64019;48.312;14.226;2023-02-15T07:27:39;2.00;99.90
75442;DHT22;64019;48.312;14.226;2023-02-15T07:30:07;1.90;99.90
75442;DHT22;64019;48.312;14.226;2023-02-15T07:32:33;1.90;99.90
75442;DHT22;64019;48.312;14.226;2023-02-15T07:34:59;1.90;99.90
75442;DHT22;64019;48.312;14.226;2023-02-15T07:37:25;1.90;99.90
75442;DHT22;64019;48.312;14.226;2023-02-15T07:39:51;1.90;99.90
75442;DHT22;64019;48.312;14.226;2023-02-15T07:42:17;1.90;99.90
75442;DHT22;64019;48.312;14.226;2023-02-15T07:44:45;1.90;99.90
75442;DHT22;64019;48.312;14.226;2023-02-15T07:47:11;2.00;99.90
75442;DHT22;64019;48.312;14.226;2023-02-15T07:49:37;2.00;99.90
75442;DHT22;64019;48.312;14.226;2023-02-15T07:52:03;1.90;99.90
75442;DHT22;64019;48.312;14.226;2023-02-15T07:54:29;1.90;99.90
75442;DHT22;64019;48.312;14.226;2023-02-15T07:56:55;2.00;99.90
75442;DHT22;64019;48.312;14.226;2023-02-15T07:59:20;2.00;99.90
75442;DHT22;64019;48.312;14.226;2023-02-15T08:01:46;2.00;99.90
75442;DHT22;64019;48.312;14.226;2023-02-15T08:04:12;2.00;99.90
75442;DHT22;64019;48.312;14.226;2023-02-15T08:06:37;2.10;99.90
75442;DHT22;64019;48.312;14.226;2023-02-15T08:09:05;2.20;99.90
75442;DHT22;64019;48.312;14.226;2023-02-15T08:11:33;2.20;99.90
75442;DHT22;64019;48.312;14.226;2023-02-15T08:14:06;2.20;99.90
75442;DHT22;64019;48.312;14.226;2023-02-15T08:16:38;2.20;99.90
75442;DHT22;64019;48.312;14.226;2023-02-15T08:19:10;2.20;99.90
75442;DHT22;64019;48.312;14.226;2023-02-15T08:21:38;2.10;99.90
75442;DHT22;64019;48.312;14.226;2023-02-15T08:24:05;1.90;99.90
75442;DHT22;64019;48.312;14.226;2023-02-15T08:26:32;1.90;99.90
75442;DHT22;64019;48.312;14.226;2023-02-15T08:28:59;1.90;99.90
75442;DHT22;64019;48.312;14.226;2023-02-15T08:31:25;1.80;99.90
75442;DHT22;64019;48.312;14.226;2023-02-15T08:33:53;1.90;99.90
75442;DHT22;64019;48.312;14.226;2023-02-15T08:36:22;2.00;99.90
75442;DHT22;64019;48.312;14.226;2023-02-15T08:38:48;2.00;99.90
75442;DHT22;64019;48.312;14.226;2023-02-15T08:41:27;2.10;99.90
75442;DHT22;64019;48.312;14.226;2023-02-15T08:43:54;2.10;99.90
75442;DHT22;64019;48.312;14.226;2023-02-15T08:46:22;2.00;99.90
75442;DHT22;64019;48.312;14.226;2023-02-15T08:48:48;2.10;99.90
75442;DHT22;64019;48.312;14.226;2023-02-15T08:51:19;2.20;99.90
75442;DHT22;64019;48.312;14.226;2023-02-15T08:53:47;2.30;99.90
75442;DHT22;64019;48.312;14.226;2023-02-15T08:56:21;2.30;99.90
75442;DHT22;64019;48.312;14.226;2023-02-15T08:58:47;2.30;99.90
75442;DHT22;64019;48.312;14.226;2023-02-15T09:01:17;2.30;99.90
75442;DHT22;64019;48.312;14.226;2023-02-15T09:03:48;2.30;99.90
75442;DHT22;64019;48.312;14.226;2023-02-15T09:06:15;2.30;99.90
75442;DHT22;64019;48.312;14.226;2023-02-15T09:08:41;2.30;99.90
75442;DHT22;64019;48.312;14.226;2023-02-15T09:11:13;2.30;99.90
75442;DHT22;64019;48.312;14.226;2023-02-15T09:13:39;2.30;99.90
75442;DHT22;64019;48.312;14.226;2023-02-15T09:16:07;2.30;99.90
75442;DHT22;64019;48.312;14.226;2023-02-15T09:18:35;2.30;99.90
75442;DHT22;64019;48.312;14.226;2023-02-15T09:21:14;2.20;99.90
75442;DHT22;64019;48.312;14.226;2023-02-15T09:23:41;2.30;99.90
75442;DHT22;64019;48.312;14.226;2023-02-15T09:26:12;2.20;99.90
75442;DHT22;64019;48.312;14.226;2023-02-15T09:28:38;2.20;99.90
75442;DHT22;64019;48.312;14.226;2023-02-15T09:31:17;2.30;99.90
75442;DHT22;64019;48.312;14.226;2023-02-15T09:33:44;2.30;99.90
75442;DHT22;64019;48.312;14.226;2023-02-15T09:36:35;2.30;99.90
75442;DHT22;64019;48.312;14.226;2023-02-15T09:39:12;2.40;99.90
75442;DHT22;64019;48.312;14.226;2023-02-15T09:55:50;2.50;99.90
75442;DHT22;64019;48.312;14.226;2023-02-15T09:58:39;2.50;99.90
75442;DHT22;64019;48.312;14.226;2023-02-15T10:01:44;2.40;99.90
75442;DHT22;64019;48.312;14.226;2023-02-15T10:15:34;2.40;99.90
75442;DHT22;64019;48.312;14.226;2023-02-15T10:26:17;2.70;99.90
75442;DHT22;64019;48.312;14.226;2023-02-15T10:28:51;2.70;99.90
75442;DHT22;64019;48.312;14.226;2023-02-15T10:33:50;2.50;99.90
75442;DHT22;64019;48.312;14.226;2023-02-15T10:50:24;2.80;99.90
75442;DHT22;64019;48.312;14.226;2023-02-15T11:01:26;2.80;99.90
75442;DHT22;64019;48.312;14.226;2023-02-15T11:06:35;2.80;99.90
75442;DHT22;64019;48.312;14.226;2023-02-15T11:09:13;2.80;99.90
75442;DHT22;64019;48.312;14.226;2023-02-15T11:11:46;2.80;99.90
75442;DHT22;64019;48.312;14.226;2023-02-15T11:14:41;2.70;99.90
75442;DHT22;64019;48.312;14.226;2023-02-15T11:17:14;2.70;99.90
75442;DHT22;64019;48.312;14.226;2023-02-15T11:20:05;2.80;99.90
75442;DHT22;64019;48.312;14.226;2023-02-15T11:22:33;2.90;99.90
75442;DHT22;64019;48.312;14.226;2023-02-15T11:25:01;3.00;99.90
75442;DHT22;64019;48.312;14.226;2023-02-15T11:27:32;3.00;99.90
75442;DHT22;64019;48.312;14.226;2023-02-15T11:32:39;3.00;99.90
75442;DHT22;64019;48.312;14.226;2023-02-15T11:37:51;3.00;99.90
75442;DHT22;64019;48.312;14.226;2023-02-15T11:40:32;2.90;99.90
75442;DHT22;64019;48.312;14.226;2023-02-15T11:43:04;3.00;99.90
75442;DHT22;64019;48.312;14.226;2023-02-15T11:45:33;3.00;99.90
75442;DHT22;64019;48.312;14.226;2023-02-15T11:48:10;2.90;99.90
75442;DHT22;64019;48.312;14.226;2023-02-15T11:50:37;2.80;99.90
75442;DHT22;64019;48.312;14.226;2023-02-15T11:53:14;2.90;99.90
75442;DHT22;64019;48.312;14.226;2023-02-15T11:55:43;3.00;99.90
75442;DHT22;64019;48.312;14.226;2023-02-15T12:00:49;2.90;99.90
75442;DHT22;64019;48.312;14.226;2023-02-15T12:03:46;2.80;99.90
75442;DHT22;64019;48.312;14.226;2023-02-15T12:08:48;2.90;99.90
75442;DHT22;64019;48.312;14.226;2023-02-15T12:11:25;2.90;99.90
75442;DHT22;64019;48.312;14.226;2023-02-15T12:13:59;2.90;99.90
75442;DHT22;64019;48.312;14.226;2023-02-15T12:16:27;3.00;99.90
75442;DHT22;64019;48.312;14.226;2023-02-15T12:18:56;2.90;99.90
75442;DHT22;64019;48.312;14.226;2023-02-15T12:21:30;2.90;99.90
75442;DHT22;64019;48.312;14.226;2023-02-15T12:24:01;2.80;99.90
75442;DHT22;64019;48.312;14.226;2023-02-15T12:26:32;2.80;99.90
75442;DHT22;64019;48.312;14.226;2023-02-15T12:29:00;2.80;99.90
75442;DHT22;64019;48.312;14.226;2023-02-15T12:31:40;2.60;99.90
75442;DHT22;64019;48.312;14.226;2023-02-15T12:34:16;2.40;99.90
75442;DHT22;64019;48.312;14.226;2023-02-15T12:36:50;2.40;99.90
75442;DHT22;64019;48.312;14.226;2023-02-15T12:39:21;2.40;99.90
75442;DHT22;64019;48.312;14.226;2023-02-15T12:42:01;2.50;99.90
75442;DHT22;64019;48.312;14.226;2023-02-15T12:44:35;2.60;99.90
75442;DHT22;64019;48.312;14.226;2023-02-15T12:49:42;2.70;99.90
75442;DHT22;64019;48.312;14.226;2023-02-15T12:54:43;2.80;99.90
75442;DHT22;64019;48.312;14.226;2023-02-15T12:57:30;2.80;99.90
75442;DHT22;64019;48.312;14.226;2023-02-15T12:59:59;3.00;99.90
75442;DHT22;64019;48.312;14.226;2023-02-15T13:04:52;2.90;99.90
75442;DHT22;64019;48.312;14.226;2023-02-15T13:07:19;2.90;99.90
75442;DHT22;64019;48.312;14.226;2023-02-15T13:09:46;2.90;99.90
75442;DHT22;64019;48.312;14.226;2023-02-15T13:12:20;3.00;99.90
75442;DHT22;64019;48.312;14.226;2023-02-15T13:14:48;3.00;99.90
75442;DHT22;64019;48.312;14.226;2023-02-15T13:17:17;3.00;99.90
75442;DHT22;64019;48.312;14.226;2023-02-15T13:19:52;3.00;99.90
75442;DHT22;64019;48.312;14.226;2023-02-15T13:22:57;2.90;99.90
75442;DHT22;64019;48.312;14.226;2023-02-15T13:25:25;2.90;99.90
75442;DHT22;64019;48.312;14.226;2023-02-15T13:27:55;3.00;99.90
75442;DHT22;64019;48.312;14.226;2023-02-15T13:30:24;3.10;99.90
75442;DHT22;64019;48.312;14.226;2023-02-15T13:32:55;3.20;99.90
75442;DHT22;64019;48.312;14.226;2023-02-15T13:35:24;3.20;99.90
75442;DHT22;64019;48.312;14.226;2023-02-15T13:38:25;3.20;99.90
75442;DHT22;64019;48.312;14.226;2023-02-15T13:40:59;3.20;99.90
75442;DHT22;64019;48.312;14.226;2023-02-15T13:43:52;3.20;99.90
75442;DHT22;64019;48.312;14.226;2023-02-15T14:00:14;3.10;99.90
75442;DHT22;64019;48.312;14.226;2023-02-15T14:25:28;3.00;99.90
75442;DHT22;64019;48.312;14.226;2023-02-15T14:30:37;3.10;99.90
75442;DHT22;64019;48.312;14.226;2023-02-15T14:35:41;3.20;99.90
75442;DHT22;64019;48.312;14.226;2023-02-15T14:41:31;3.30;99.90
75442;DHT22;64019;48.312;14.226;2023-02-15T14:44:22;3.30;99.90
75442;DHT22;64019;48.312;14.226;2023-02-15T14:46:55;3.30;99.90
75442;DHT22;64019;48.312;14.226;2023-02-15T14:49:26;3.30;99.90
75442;DHT22;64019;48.312;14.226;2023-02-15T14:52:00;3.30;99.90
75442;DHT22;64019;48.312;14.226;2023-02-15T14:59:27;3.20;99.90
75442;DHT22;64019;48.312;14.226;2023-02-15T15:04:39;3.20;99.90
75442;DHT22;64019;48.312;14.226;2023-02-15T15:09:36;3.20;99.90
75442;DHT22;64019;48.312;14.226;2023-02-15T15:14:47;3.20;99.90
75442;DHT22;64019;48.312;14.226;2023-02-15T15:20:02;3.20;99.90
75442;DHT22;64019;48.312;14.226;2023-02-15T15:22:31;3.20;99.90
75442;DHT22;64019;48.312;14.226;2023-02-15T15:24:58;3.10;99.90
75442;DHT22;64019;48.312;14.226;2023-02-15T15:35:47;3.10;99.90
75442;DHT22;64019;48.312;14.226;2023-02-15T15:41:42;3.20;99.90
75442;DHT22;64019;48.312;14.226;2023-02-15T15:49:50;3.10;99.90
75442;DHT22;64019;48.312;14.226;2023-02-15T15:52:21;3.20;99.90
75442;DHT22;64019;48.312;14.226;2023-02-15T15:54:51;3.20;99.90
75442;DHT22;64019;48.312;14.226;2023-02-15T15:57:28;3.20;99.90
75442;DHT22;64019;48.312;14.226;2023-02-15T15:59:56;3.20;99.90
75442;DHT22;64019;48.312;14.226;2023-02-15T16:02:25;3.20;99.90
75442;DHT22;64019;48.312;14.226;2023-02-15T16:04:51;3.20;99.90
75442;DHT22;64019;48.312;14.226;2023-02-15T16:10:02;3.10;99.90
75442;DHT22;64019;48.312;14.226;2023-02-15T16:12:33;3.10;99.90
75442;DHT22;64019;48.312;14.226;2023-02-15T16:15:13;3.10;99.90
75442;DHT22;64019;48.312;14.226;2023-02-15T16:17:41;3.10;99.90
75442;DHT22;64019;48.312;14.226;2023-02-15T16:20:18;3.10;99.90
75442;DHT22;64019;48.312;14.226;2023-02-15T16:22:46;3.10;99.90
75442;DHT22;64019;48.312;14.226;2023-02-15T16:25:46;3.10;99.90
75442;DHT22;64019;48.312;14.226;2023-02-15T16:28:15;3.10;99.90
75442;DHT22;64019;48.312;14.226;2023-02-15T16:30:44;3.10;99.90
75442;DHT22;64019;48.312;14.226;2023-02-15T16:33:12;3.10;99.90
75442;DHT22;64019;48.312;14.226;2023-02-15T16:38:21;3.00;99.90
75442;DHT22;64019;48.312;14.226;2023-02-15T16:40:55;3.00;99.90
75442;DHT22;64019;48.312;14.226;2023-02-15T16:43:28;2.90;99.90
75442;DHT22;64019;48.312;14.226;2023-02-15T16:46:22;3.00;99.90
75442;DHT22;64019;48.312;14.226;2023-02-15T16:48:46;2.90;99.90
75442;DHT22;64019;48.312;14.226;2023-02-15T16:51:23;2.80;99.90
75442;DHT22;64019;48.312;14.226;2023-02-15T16:53:49;2.80;99.90
75442;DHT22;64019;48.312;14.226;2023-02-15T16:56:26;2.70;99.90
75442;DHT22;64019;48.312;14.226;2023-02-15T16:58:54;2.80;99.90
75442;DHT22;64019;48.312;14.226;2023-02-15T17:01:22;2.90;99.90
75442;DHT22;64019;48.312;14.226;2023-02-15T17:03:51;2.90;99.90
75442;DHT22;64019;48.312;14.226;2023-02-15T17:06:20;2.80;99.90
75442;DHT22;64019;48.312;14.226;2023-02-15T17:08:47;2.90;99.90
75442;DHT22;64019;48.312;14.226;2023-02-15T17:11:21;2.90;99.90
75442;DHT22;64019;48.312;14.226;2023-02-15T17:16:43;2.70;99.90
75442;DHT22;64019;48.312;14.226;2023-02-15T17:19:21;2.70;99.90
75442;DHT22;64019;48.312;14.226;2023-02-15T17:21:55;2.60;99.90
75442;DHT22;64019;48.312;14.226;2023-02-15T17:24:33;2.60;99.90
75442;DHT22;64019;48.312;14.226;2023-02-15T17:27:03;2.60;99.90
75442;DHT22;64019;48.312;14.226;2023-02-15T17:29:38;2.60;99.90
75442;DHT22;64019;48.312;14.226;2023-02-15T17:32:31;2.50;99.90
75442;DHT22;64019;48.312;14.226;2023-02-15T17:35:00;2.40;99.90
75442;DHT22;64019;48.312;14.226;2023-02-15T17:40:16;2.30;99.90
75442;DHT22;64019;48.312;14.226;2023-02-15T17:42:43;2.30;99.90
75442;DHT22;64019;48.312;14.226;2023-02-15T17:45:08;2.20;99.90
75442;DHT22;64019;48.312;14.226;2023-02-15T17:47:34;2.20;99.90
75442;DHT22;64019;48.312;14.226;2023-02-15T17:50:02;2.20;99.90
75442;DHT22;64019;48.312;14.226;2023-02-15T17:52:29;2.20;99.90
75442;DHT22;64019;48.312;14.226;2023-02-15T17:54:55;2.30;99.90
75442;DHT22;64019;48.312;14.226;2023-02-15T17:57:40;2.30;99.90
75442;DHT22;64019;48.312;14.226;2023-02-15T18:00:07;2.40;99.90
75442;DHT22;64019;48.312;14.226;2023-02-15T18:02:51;2.40;99.90
75442;DHT22;64019;48.312;14.226;2023-02-15T18:05:35;2.40;99.90
75442;DHT22;64019;48.312;14.226;2023-02-15T18:08:24;2.40;99.90
75442;DHT22;64019;48.312;14.226;2023-02-15T18:11:09;2.20;99.90
75442;DHT22;64019;48.312;14.226;2023-02-15T18:13:53;2.20;99.90
75442;DHT22;64019;48.312;14.226;2023-02-15T18:16:24;2.30;99.90
75442;DHT22;64019;48.312;14.226;2023-02-15T18:18:54;2.30;99.90
75442;DHT22;64019;48.312;14.226;2023-02-15T18:21:20;2.20;99.90
75442;DHT22;64019;48.312;14.226;2023-02-15T18:23:45;2.10;99.90
75442;DHT22;64019;48.312;14.226;2023-02-15T18:26:23;2.10;99.90
75442;DHT22;64019;48.312;14.226;2023-02-15T18:28:49;2.10;99.90
75442;DHT22;64019;48.312;14.226;2023-02-15T18:31:15;2.10;99.90
75442;DHT22;64019;48.312;14.226;2023-02-15T18:33:51;2.00;99.90
75442;DHT22;64019;48.312;14.226;2023-02-15T18:36:29;2.00;99.90
75442;DHT22;64019;48.312;14.226;2023-02-15T18:38:58;2.00;99.90
75442;DHT22;64019;48.312;14.226;2023-02-15T18:41:24;2.00;99.90
75442;DHT22;64019;48.312;14.226;2023-02-15T18:43:50;2.10;99.90
75442;DHT22;64019;48.312;14.226;2023-02-15T18:46:18;2.10;99.90
75442;DHT22;64019;48.312;14.226;2023-02-15T18:48:44;2.00;99.90
75442;DHT22;64019;48.312;14.226;2023-02-15T18:51:19;1.90;99.90
75442;DHT22;64019;48.312;14.226;2023-02-15T18:53:46;1.90;99.90
75442;DHT22;64019;48.312;14.226;2023-02-15T18:56:17;1.80;99.90
75442;DHT22;64019;48.312;14.226;2023-02-15T18:58:44;1.80;99.90
75442;DHT22;64019;48.312;14.226;2023-02-15T19:01:19;1.90;99.90